Time;durP1;ratioP1;P1;durP2;ratioP2;P2;SDS_P1;SDS_P2;PMS_P1;PMS_P2;Temp;Humidity;BMP_temperature;BMP_pressure;BME280_temperature;BME280_humidity;BME280_pressure;Samples;Min_cycle;Max_cycle;Signal;HPM_P1;HPM_P2
2022/06/29 00:02:18;;;;;;;13.15;3.10;;;;;;;;;;4929688;28;20488;-70
2022/06/29 00:04:45;;;;;;;14.20;3.13;;;;;;;;;;4937990;28;20027;-76
2022/06/29 00:07:11;;;;;;;11.93;2.53;;;;;;;;;;4925419;28;20049;-75
2022/06/29 00:09:40;;;;;;;11.13;2.95;;;;;;;;;;4951618;28;20034;-75
2022/06/29 00:12:06;;;;;;;10.60;2.58;;;;;;;;;;4945936;28;20553;-75
2022/06/29 00:14:41;;;;;;;9.80;2.80;;;;;;;;;;4946457;28;20486;-75
2022/06/29 00:17:08;;;;;;;10.95;2.60;;;;;;;;;;4946092;28;20043;-75
2022/06/29 00:19:34;;;;;;;11.00;2.35;;;;;;;;;;4931927;28;20576;-76
2022/06/29 00:22:01;;;;;;;11.18;2.80;;;;;;;;;;4945364;28;20027;-76
2022/06/29 00:24:27;;;;;;;9.13;2.45;;;;;;;;;;4952293;28;20435;-76
2022/06/29 00:26:53;;;;;;;10.50;2.42;;;;;;;;;;4950143;28;20105;-76
2022/06/29 00:29:19;;;;;;;11.45;2.75;;;;;;;;;;4944019;28;20455;-77
2022/06/29 00:31:45;;;;;;;10.95;2.45;;;;;;;;;;4928000;28;20178;-77
2022/06/29 00:34:11;;;;;;;9.32;2.40;;;;;;;;;;4945173;28;20112;-76
2022/06/29 00:36:37;;;;;;;;;;;;;;;;;;4931304;28;20492;-76
2022/06/29 00:39:03;;;;;;;11.73;2.40;;;;;;;;;;4946213;28;19925;-75
2022/06/29 00:41:30;;;;;;;10.80;2.30;;;;;;;;;;4949642;28;20019;-76
2022/06/29 00:43:56;;;;;;;9.05;2.20;;;;;;;;;;4947588;28;20481;-76
2022/06/29 00:46:22;;;;;;;;;;;;;;;;;;4943900;28;20046;-76
2022/06/29 00:48:49;;;;;;;11.65;2.83;;;;;;;;;;4948212;28;19910;-76
2022/06/29 00:51:17;;;;;;;9.43;2.90;;;;;;;;;;4945010;28;20522;-76
2022/06/29 00:53:47;;;;;;;11.43;2.60;;;;;;;;;;4931225;28;20105;-76
2022/06/29 00:56:14;;;;;;;15.35;2.85;;;;;;;;;;4944367;28;20041;-76
2022/06/29 00:58:43;;;;;;;11.85;2.72;;;;;;;;;;4948029;28;20714;-76
2022/06/29 01:01:10;;;;;;;10.10;2.60;;;;;;;;;;4921560;28;20576;-76
2022/06/29 01:03:38;;;;;;;11.90;2.90;;;;;;;;;;4948785;28;20798;-75
2022/06/29 01:06:06;;;;;;;11.20;2.95;;;;;;;;;;4916335;28;20141;-76
2022/06/29 01:08:33;;;;;;;10.65;2.70;;;;;;;;;;4944572;28;20031;-76
2022/06/29 01:11:00;;;;;;;10.45;2.75;;;;;;;;;;4938458;28;20154;-76
2022/06/29 01:13:27;;;;;;;10.93;2.60;;;;;;;;;;4944959;28;20031;-75
2022/06/29 01:15:53;;;;;;;11.32;2.88;;;;;;;;;;4927862;28;20378;-76
2022/06/29 01:18:19;;;;;;;11.00;2.85;;;;;;;;;;4927952;28;20041;-76
2022/06/29 01:20:45;;;;;;;12.02;2.70;;;;;;;;;;4943439;28;20031;-76
2022/06/29 01:23:13;;;;;;;11.68;2.53;;;;;;;;;;4939625;28;20030;-75
2022/06/29 01:25:41;;;;;;;15.07;2.70;;;;;;;;;;4949151;28;20034;-76
2022/06/29 01:28:09;;;;;;;9.38;2.30;;;;;;;;;;4942841;28;20094;-75
2022/06/29 01:30:37;;;;;;;11.00;2.30;;;;;;;;;;4948958;28;20061;-71
2022/06/29 01:33:03;;;;;;;11.70;2.67;;;;;;;;;;4945833;28;20118;-70
2022/06/29 01:35:32;;;;;;;9.70;2.25;;;;;;;;;;4955060;28;20438;-70
2022/06/29 01:37:59;;;;;;;11.95;2.70;;;;;;;;;;4930341;28;20031;-70
2022/06/29 01:40:28;;;;;;;9.32;2.58;;;;;;;;;;4931786;28;20495;-70
2022/06/29 01:42:56;;;;;;;9.27;2.30;;;;;;;;;;4925480;28;20030;-70
2022/06/29 01:45:22;;;;;;;9.52;2.28;;;;;;;;;;4947504;28;20732;-71
2022/06/29 01:47:48;;;;;;;11.07;2.30;;;;;;;;;;4940056;28;20722;-70
2022/06/29 01:50:14;;;;;;;11.48;2.60;;;;;;;;;;4935487;28;20043;-70
2022/06/29 01:52:40;;;;;;;;;;;;;;;;;;4941714;28;20470;-70
2022/06/29 01:55:06;;;;;;;9.70;2.50;;;;;;;;;;4945095;28;20052;-71
2022/06/29 01:57:32;;;;;;;10.55;2.58;;;;;;;;;;4949228;28;20101;-70
2022/06/29 01:59:59;;;;;;;;;;;;;;;;;;4943306;28;20772;-70
2022/06/29 02:02:26;;;;;;;11.52;2.35;;;;;;;;;;4941501;28;19969;-70
2022/06/29 02:04:52;;;;;;;8.40;2.15;;;;;;;;;;4943949;28;20507;-69
2022/06/29 02:07:18;;;;;;;;;;;;;;;;;;4940138;28;21699;-69
2022/06/29 02:09:44;;;;;;;9.05;2.30;;;;;;;;;;4938295;28;20017;-70
2022/06/29 02:12:10;;;;;;;9.43;2.22;;;;;;;;;;4924548;28;20439;-69
2022/06/29 02:14:36;;;;;;;;;;;;;;;;;;4923569;28;20102;-69
2022/06/29 02:17:02;;;;;;;10.65;2.35;;;;;;;;;;4944353;28;19929;-69
2022/06/29 02:19:28;;;;;;;10.52;2.50;;;;;;;;;;4938506;28;20106;-70
2022/06/29 02:21:54;;;;;;;;;;;;;;;;;;4929299;28;20027;-69
2022/06/29 02:24:20;;;;;;;9.52;2.40;;;;;;;;;;4924728;28;20094;-69
2022/06/29 02:26:46;;;;;;;;;;;;;;;;;;4930238;28;20492;-69
2022/06/29 02:29:12;;;;;;;10.30;2.40;;;;;;;;;;4940270;28;20281;-69
2022/06/29 02:37:08;;;;;;;13.80;2.60;;;;;;;;;;4938097;28;20077;-69
2022/06/29 02:39:34;;;;;;;;;;;;;;;;;;4945399;28;20037;-70
2022/06/29 02:42:00;;;;;;;11.70;2.50;;;;;;;;;;4940084;28;19918;-69
2022/06/29 02:44:26;;;;;;;;;;;;;;;;;;4942145;28;20602;-71
2022/06/29 02:46:52;;;;;;;12.43;2.55;;;;;;;;;;4926980;28;19929;-71
2022/06/29 02:49:18;;;;;;;12.93;2.53;;;;;;;;;;4937555;28;20035;-71
2022/06/29 02:51:44;;;;;;;9.15;2.03;;;;;;;;;;4940151;28;20043;-69
2022/06/29 02:54:10;;;;;;;;;;;;;;;;;;4917983;28;20043;-72
2022/06/29 02:56:36;;;;;;;8.52;2.15;;;;;;;;;;4943733;28;20356;-71
2022/06/29 02:59:02;;;;;;;;;;;;;;;;;;4931387;28;20073;-71
2022/06/29 03:01:28;;;;;;;8.88;2.00;;;;;;;;;;4940412;28;20024;-71
2022/06/29 03:03:55;;;;;;;10.45;2.20;;;;;;;;;;4945028;28;20113;-71
2022/06/29 03:06:21;;;;;;;7.97;1.90;;;;;;;;;;4930011;28;20031;-71
2022/06/29 03:08:47;;;;;;;;;;;;;;;;;;4943936;28;20039;-69
2022/06/29 03:11:13;;;;;;;8.45;1.95;;;;;;;;;;4940831;28;20250;-69
2022/06/29 03:13:39;;;;;;;;;;;;;;;;;;4926902;28;20484;-71
2022/06/29 03:16:05;;;;;;;10.48;2.00;;;;;;;;;;4939586;28;19965;-71
2022/06/29 03:18:31;;;;;;;;;;;;;;;;;;4949079;28;20105;-71
2022/06/29 03:20:57;;;;;;;10.25;2.05;;;;;;;;;;4941395;28;19918;-71
2022/06/29 03:23:23;;;;;;;8.43;1.70;;;;;;;;;;4948746;28;20042;-70
2022/06/29 03:25:49;;;;;;;;;;;;;;;;;;4944693;28;20027;-70
2022/06/29 03:28:15;;;;;;;7.00;1.75;;;;;;;;;;4939936;28;20397;-70
2022/06/29 03:30:41;;;;;;;7.85;1.90;;;;;;;;;;4950064;28;20434;-69
2022/06/29 03:33:07;;;;;;;;;;;;;;;;;;4942514;28;20464;-69
2022/06/29 03:35:33;;;;;;;10.15;2.25;;;;;;;;;;4947845;28;20198;-70
2022/06/29 03:37:59;;;;;;;11.52;2.05;;;;;;;;;;4938461;28;20146;-69
2022/06/29 03:40:25;;;;;;;;;;;;;;;;;;4945789;28;20090;-69
2022/06/29 03:42:53;;;;;;;7.13;2.00;;;;;;;;;;4944780;28;19959;-70
2022/06/29 03:45:19;;;;;;;9.35;1.90;;;;;;;;;;4939966;28;20031;-70
2022/06/29 03:47:47;;;;;;;7.53;2.28;;;;;;;;;;4947274;28;20042;-70
2022/06/29 03:50:14;;;;;;;11.25;2.20;;;;;;;;;;4941771;28;20041;-69
2022/06/29 03:52:40;;;;;;;12.30;2.40;;;;;;;;;;4950474;28;20524;-70
2022/06/29 03:55:06;;;;;;;;;;;;;;;;;;4925175;28;20038;-70
2022/06/29 03:57:32;;;;;;;8.75;2.08;;;;;;;;;;4944254;28;19969;-70
2022/06/29 03:59:58;;;;;;;7.22;1.90;;;;;;;;;;4938597;28;20049;-70
2022/06/29 04:02:25;;;;;;;10.52;2.10;;;;;;;;;;4944414;28;20495;-70
2022/06/29 04:04:51;;;;;;;8.82;2.53;;;;;;;;;;4947045;28;20030;-70
2022/06/29 04:07:17;;;;;;;9.90;2.30;;;;;;;;;;4942733;28;20039;-70
2022/06/29 04:09:43;;;;;;;9.52;2.70;;;;;;;;;;4940481;28;20027;-70
2022/06/29 04:12:09;;;;;;;;;;;;;;;;;;4943219;28;20318;-69
2022/06/29 04:14:35;;;;;;;9.55;2.58;;;;;;;;;;4943408;28;20506;-69
2022/06/29 04:17:01;;;;;;;;;;;;;;;;;;4940528;28;20219;-69
2022/06/29 04:19:27;;;;;;;9.30;2.33;;;;;;;;;;4939169;28;20063;-69
2022/06/29 04:21:54;;;;;;;12.93;3.00;;;;;;;;;;4924905;28;20058;-69
2022/06/29 04:24:21;;;;;;;8.65;2.40;;;;;;;;;;4943038;28;20027;-69
2022/06/29 04:26:47;;;;;;;7.90;2.03;;;;;;;;;;4922825;28;20047;-69
2022/06/29 04:29:13;;;;;;;8.45;2.20;;;;;;;;;;4939575;28;20031;-69
2022/06/29 04:31:40;;;;;;;8.70;2.03;;;;;;;;;;4946039;28;20419;-69
2022/06/29 04:34:06;;;;;;;9.38;2.13;;;;;;;;;;4937241;28;20446;-69
2022/06/29 04:36:32;;;;;;;11.45;2.30;;;;;;;;;;4930646;28;20050;-70
2022/06/29 04:38:58;;;;;;;;;;;;;;;;;;4948366;28;20469;-69
2022/06/29 04:41:24;;;;;;;8.23;2.20;;;;;;;;;;4943542;28;19915;-68
2022/06/29 04:43:50;;;;;;;10.15;2.15;;;;;;;;;;4943779;28;20561;-70
2022/06/29 04:46:20;;;;;;;9.38;2.10;;;;;;;;;;4926371;28;20122;-69
2022/06/29 04:48:49;;;;;;;8.43;2.33;;;;;;;;;;4941811;28;20437;-69
2022/06/29 04:51:18;;;;;;;9.80;2.42;;;;;;;;;;4935962;28;20506;-69
2022/06/29 04:53:45;;;;;;;8.70;2.22;;;;;;;;;;4923263;28;20035;-69
2022/06/29 04:56:11;;;;;;;9.55;2.40;;;;;;;;;;4931984;28;20473;-69
2022/06/29 04:58:37;;;;;;;;;;;;;;;;;;4933835;28;20372;-69
2022/06/29 05:01:03;;;;;;;12.38;2.15;;;;;;;;;;4932264;28;19925;-69
2022/06/29 05:03:29;;;;;;;10.93;2.05;;;;;;;;;;4933185;28;20026;-69
2022/06/29 05:05:55;;;;;;;;;;;;;;;;;;4932676;28;20155;-69
2022/06/29 05:08:21;;;;;;;10.90;2.42;;;;;;;;;;4927686;28;20360;-69
2022/06/29 05:10:47;;;;;;;;;;;;;;;;;;4912249;28;20535;-69
2022/06/29 05:13:13;;;;;;;11.55;2.50;;;;;;;;;;4912698;28;20352;-68
2022/06/29 05:15:40;;;;;;;12.45;2.55;;;;;;;;;;4932817;28;20063;-71
2022/06/29 05:18:06;;;;;;;12.10;2.50;;;;;;;;;;4915491;28;20031;-69
2022/06/29 05:20:32;;;;;;;9.13;2.20;;;;;;;;;;4937435;28;20621;-69
2022/06/29 05:22:58;;;;;;;8.63;2.15;;;;;;;;;;4932308;28;20027;-71
2022/06/29 05:25:24;;;;;;;;;;;;;;;;;;4921898;28;20575;-70
2022/06/29 05:27:50;;;;;;;13.15;2.33;;;;;;;;;;4920485;28;19915;-69
2022/06/29 05:30:16;;;;;;;;;;;;;;;;;;4917175;28;20048;-71
2022/06/29 05:32:43;;;;;;;11.18;2.22;;;;;;;;;;4935250;28;19922;-71
2022/06/29 05:35:09;;;;;;;12.98;2.35;;;;;;;;;;4930746;28;20626;-70
2022/06/29 05:37:36;;;;;;;17.60;2.80;;;;;;;;;;4932664;28;20026;-71
2022/06/29 05:40:02;;;;;;;17.60;3.10;;;;;;;;;;4932065;28;20461;-70
2022/06/29 05:42:28;;;;;;;11.60;2.72;;;;;;;;;;4936388;28;20032;-71
2022/06/29 05:44:54;;;;;;;;;;;;;;;;;;4911784;28;20386;-71
2022/06/29 05:47:20;;;;;;;11.60;2.35;;;;;;;;;;4925224;28;20534;-70
2022/06/29 05:49:46;;;;;;;12.77;2.53;;;;;;;;;;4905009;28;20125;-71
2022/06/29 05:52:13;;;;;;;15.32;2.85;;;;;;;;;;4924675;28;20035;-70
2022/06/29 05:54:38;;;;;;;;;;;;;;;;;;4930717;28;20490;-71
2022/06/29 05:57:06;;;;;;;9.10;2.63;;;;;;;;;;4930831;28;20444;-71
2022/06/29 05:59:34;;;;;;;13.55;2.45;;;;;;;;;;4930958;28;20027;-70
2022/06/29 06:02:00;;;;;;;9.30;2.40;;;;;;;;;;4931604;28;20058;-70
2022/06/29 06:04:26;;;;;;;;;;;;;;;;;;4918478;28;20540;-71
2022/06/29 06:06:53;;;;;;;10.18;2.40;;;;;;;;;;4917386;28;20292;-71
2022/06/29 06:09:22;;;;;;;8.23;2.20;;;;;;;;;;4929382;28;20629;-71
2022/06/29 06:11:48;;;;;;;13.13;2.90;;;;;;;;;;4933987;28;20039;-71
2022/06/29 06:14:14;;;;;;;11.55;2.50;;;;;;;;;;4918170;28;20153;-71
2022/06/29 06:16:40;;;;;;;;;;;;;;;;;;4918851;28;20152;-71
2022/06/29 06:19:08;;;;;;;16.10;2.83;;;;;;;;;;4943930;28;20014;-71
2022/06/29 06:21:35;;;;;;;18.42;2.83;;;;;;;;;;4926854;28;20540;-71
2022/06/29 06:24:02;;;;;;;15.18;3.60;;;;;;;;;;4938957;28;20847;-71
2022/06/29 06:26:28;;;;;;;13.18;3.20;;;;;;;;;;4924388;28;20033;-71
2022/06/29 06:28:54;;;;;;;12.25;3.10;;;;;;;;;;4924945;28;20039;-69
2022/06/29 06:31:20;;;;;;;12.48;3.15;;;;;;;;;;4944748;28;20575;-71
2022/06/29 06:33:47;;;;;;;22.30;3.35;;;;;;;;;;4943900;28;20035;-71
2022/06/29 06:36:13;;;;;;;12.40;2.83;;;;;;;;;;4938884;28;20041;-71
2022/06/29 06:38:39;;;;;;;13.32;3.80;;;;;;;;;;4940087;28;20142;-71
2022/06/29 06:41:23;;;;;;;12.40;3.10;;;;;;;;;;4939145;28;20023;-71
2022/06/29 06:43:50;;;;;;;15.45;3.25;;;;;;;;;;4944233;28;20035;-70
2022/06/29 06:46:16;;;;;;;12.60;3.70;;;;;;;;;;4921988;28;20031;-70
2022/06/29 06:48:43;;;;;;;15.32;3.30;;;;;;;;;;4944367;28;20433;-71
2022/06/29 06:51:10;;;;;;;13.70;3.70;;;;;;;;;;4920148;28;20078;-70
2022/06/29 06:53:36;;;;;;;15.93;3.20;;;;;;;;;;4939659;28;20093;-70
2022/06/29 06:56:03;;;;;;;13.00;3.03;;;;;;;;;;4939400;28;20888;-70
2022/06/29 06:58:29;;;;;;;15.88;3.38;;;;;;;;;;4939927;28;20035;-71
2022/06/29 07:00:55;;;;;;;12.10;2.75;;;;;;;;;;4938368;28;20049;-70
2022/06/29 07:03:21;;;;;;;15.23;3.05;;;;;;;;;;4922608;28;20202;-71
2022/06/29 07:05:48;;;;;;;14.07;3.22;;;;;;;;;;4943310;28;20162;-70
2022/06/29 07:08:14;;;;;;;11.35;2.90;;;;;;;;;;4939690;28;20121;-70
2022/06/29 07:10:40;;;;;;;14.70;2.67;;;;;;;;;;4925347;28;20140;-71
2022/06/29 07:13:06;;;;;;;11.63;2.75;;;;;;;;;;4936505;28;20061;-70
2022/06/29 07:15:32;;;;;;;13.20;2.63;;;;;;;;;;4938129;28;20478;-71
2022/06/29 07:17:58;;;;;;;12.75;2.55;;;;;;;;;;4929526;28;20488;-70
2022/06/29 07:20:28;;;;;;;12.88;2.55;;;;;;;;;;4917788;28;20111;-71
2022/06/29 07:22:54;;;;;;;11.15;2.63;;;;;;;;;;4924521;28;20379;-70
2022/06/29 07:25:21;;;;;;;10.38;2.40;;;;;;;;;;4919513;28;20178;-70
2022/06/29 07:27:47;;;;;;;13.63;3.17;;;;;;;;;;4941783;28;20050;-70
2022/06/29 07:30:13;;;;;;;11.20;2.90;;;;;;;;;;4921897;28;20023;-70
2022/06/29 07:32:39;;;;;;;12.13;2.35;;;;;;;;;;4939598;28;20041;-69
2022/06/29 07:35:05;;;;;;;18.33;3.58;;;;;;;;;;4921608;28;20038;-70
2022/06/29 07:37:31;;;;;;;17.70;3.30;;;;;;;;;;4939550;28;20065;-70
2022/06/29 07:39:59;;;;;;;17.55;2.90;;;;;;;;;;4939799;28;20030;-70
2022/06/29 07:42:25;;;;;;;10.32;2.67;;;;;;;;;;4938841;28;20081;-71
2022/06/29 07:44:51;;;;;;;10.98;2.33;;;;;;;;;;4925418;28;20027;-70
2022/06/29 07:47:17;;;;;;;14.10;2.50;;;;;;;;;;4935457;28;20027;-69
2022/06/29 07:49:43;;;;;;;12.88;2.90;;;;;;;;;;4938077;28;20662;-72
2022/06/29 07:52:10;;;;;;;10.82;2.78;;;;;;;;;;4929781;28;20042;-70
2022/06/29 07:54:36;;;;;;;10.65;2.42;;;;;;;;;;4937049;28;20043;-70
2022/06/29 07:57:02;;;;;;;10.80;2.20;;;;;;;;;;4913235;28;20046;-69
2022/06/29 07:59:28;;;;;;;12.30;2.30;;;;;;;;;;4937895;28;20112;-70
2022/06/29 08:01:54;;;;;;;11.60;2.70;;;;;;;;;;4941302;28;20178;-69
2022/06/29 08:04:20;;;;;;;9.35;2.38;;;;;;;;;;4933474;28;20050;-71
2022/06/29 08:06:46;;;;;;;9.90;2.50;;;;;;;;;;4935513;28;20027;-71
2022/06/29 08:09:12;;;;;;;11.30;2.35;;;;;;;;;;4937610;28;20088;-70
2022/06/29 08:11:38;;;;;;;11.80;2.45;;;;;;;;;;4916365;28;20402;-70
2022/06/29 08:14:05;;;;;;;10.07;2.50;;;;;;;;;;4935081;28;20229;-70
2022/06/29 08:16:31;;;;;;;14.00;2.60;;;;;;;;;;4942418;28;20050;-71
2022/06/29 08:18:57;;;;;;;17.75;2.55;;;;;;;;;;4937723;28;20031;-70
2022/06/29 08:21:23;;;;;;;12.60;2.05;;;;;;;;;;4938253;28;20035;-70
2022/06/29 08:23:49;;;;;;;10.05;2.05;;;;;;;;;;4920676;28;20038;-70
2022/06/29 08:26:16;;;;;;;17.23;2.72;;;;;;;;;;4936514;28;20061;-70
2022/06/29 08:28:42;;;;;;;9.85;2.08;;;;;;;;;;4939096;28;20046;-71
2022/06/29 08:31:08;;;;;;;10.13;2.45;;;;;;;;;;4939157;28;20034;-70
2022/06/29 08:33:34;;;;;;;11.73;2.40;;;;;;;;;;4927383;28;20642;-70
2022/06/29 08:36:00;;;;;;;10.88;2.28;;;;;;;;;;4934250;28;20098;-70
2022/06/29 08:38:26;;;;;;;9.23;1.70;;;;;;;;;;4930200;28;20031;-71
2022/06/29 08:40:52;;;;;;;7.25;1.80;;;;;;;;;;4935165;28;20037;-70
2022/06/29 08:43:21;;;;;;;9.60;1.98;;;;;;;;;;4934724;28;20747;-70
2022/06/29 08:45:48;;;;;;;9.60;1.80;;;;;;;;;;4932387;28;20029;-70
2022/06/29 08:48:15;;;;;;;8.18;1.90;;;;;;;;;;4917688;28;20320;-70
2022/06/29 08:50:43;;;;;;;7.68;1.90;;;;;;;;;;4938433;28;20616;-70
2022/06/29 08:53:10;;;;;;;14.50;2.35;;;;;;;;;;4930354;28;20035;-69
2022/06/29 08:55:38;;;;;;;8.00;2.10;;;;;;;;;;4937998;28;20139;-69
2022/06/29 08:58:06;;;;;;;9.43;1.95;;;;;;;;;;4933641;28;20426;-70
2022/06/29 09:00:36;;;;;;;7.95;1.75;;;;;;;;;;4938007;28;20043;-70
2022/06/29 09:03:02;;;;;;;9.68;1.80;;;;;;;;;;4932916;28;20465;-70
2022/06/29 09:05:28;;;;;;;11.70;1.73;;;;;;;;;;4938722;28;20136;-70
2022/06/29 09:07:54;;;;;;;11.75;1.80;;;;;;;;;;4940213;28;20444;-70
2022/06/29 09:10:23;;;;;;;9.07;1.67;;;;;;;;;;4935003;28;20446;-69
2022/06/29 09:12:50;;;;;;;12.13;2.33;;;;;;;;;;4943014;28;20046;-69
2022/06/29 09:15:16;;;;;;;9.65;1.80;;;;;;;;;;4937040;28;20811;-69
2022/06/29 09:17:42;;;;;;;9.77;2.13;;;;;;;;;;4922947;28;20544;-70
2022/06/29 09:20:12;;;;;;;9.65;1.52;;;;;;;;;;4919479;28;20051;-70
2022/06/29 09:22:42;;;;;;;7.63;1.65;;;;;;;;;;4935882;28;20912;-71
2022/06/29 09:25:20;;;;;;;7.20;1.35;;;;;;;;;;4913376;28;20106;-71
2022/06/29 09:27:47;;;;;;;9.43;1.80;;;;;;;;;;4939869;28;20035;-69
2022/06/29 09:30:25;;;;;;;11.65;1.80;;;;;;;;;;4921466;28;20535;-77
2022/06/29 09:33:00;;;;;;;9.80;1.88;;;;;;;;;;4937872;28;20031;-75
2022/06/29 09:35:28;;;;;;;7.57;1.40;;;;;;;;;;4920383;28;20033;-76
2022/06/29 09:38:15;;;;;;;7.75;1.85;;;;;;;;;;4939887;28;20034;-78
2022/06/29 09:41:01;;;;;;;8.85;1.80;;;;;;;;;;4917724;28;20309;-82
2022/06/29 09:43:29;;;;;;;6.68;1.50;;;;;;;;;;4941258;28;20138;-76
2022/06/29 09:46:00;;;;;;;8.35;1.77;;;;;;;;;;4920950;28;20214;-75
2022/06/29 09:48:28;;;;;;;9.95;1.83;;;;;;;;;;4939544;28;20517;-74
2022/06/29 09:50:56;;;;;;;9.50;1.70;;;;;;;;;;4921145;28;20109;-78
2022/06/29 09:53:42;;;;;;;7.28;1.58;;;;;;;;;;4916802;28;20086;-78
2022/06/29 09:56:15;;;;;;;6.55;1.35;;;;;;;;;;4917215;28;20039;-80
2022/06/29 09:58:45;;;;;;;7.82;1.40;;;;;;;;;;4918488;28;20035;-76
2022/06/29 10:04:03;;;;;;;7.47;1.55;;;;;;;;;;4940406;28;20042;-78
2022/06/29 10:06:29;;;;;;;9.13;1.77;;;;;;;;;;4944867;28;20027;-79
2022/06/29 10:08:57;;;;;;;9.65;1.60;;;;;;;;;;4937659;28;20402;-76
2022/06/29 10:14:45;;;;;;;8.48;1.77;;;;;;;;;;4940679;28;20146;-76
2022/06/29 10:17:33;;;;;;;9.07;1.70;;;;;;;;;;4933691;28;20141;-80
2022/06/29 10:20:28;;;;;;;9.50;1.90;;;;;;;;;;4937483;28;20039;-83
2022/06/29 10:23:03;;;;;;;10.88;1.83;;;;;;;;;;4937844;28;20074;-77
2022/06/29 10:25:30;;;;;;;7.75;1.60;;;;;;;;;;4937971;28;20031;-79
2022/06/29 10:28:16;;;;;;;7.25;1.70;;;;;;;;;;4937763;28;20034;-78
2022/06/29 10:30:54;;;;;;;10.57;1.90;;;;;;;;;;4936166;28;20039;-79
2022/06/29 10:33:33;;;;;;;14.13;1.77;;;;;;;;;;4916049;28;20026;-83
2022/06/29 10:36:06;;;;;;;6.40;1.50;;;;;;;;;;4934540;28;20497;-79
2022/06/29 10:38:53;;;;;;;9.85;1.80;;;;;;;;;;4936126;28;20043;-79
2022/06/29 10:44:08;;;;;;;6.75;1.42;;;;;;;;;;4939151;28;20054;-79
2022/06/29 10:46:55;;;;;;;11.52;2.20;;;;;;;;;;4942286;28;20434;-77
2022/06/29 10:49:22;;;;;;;11.07;2.08;;;;;;;;;;4935473;28;20575;-76
2022/06/29 10:51:50;;;;;;;7.63;1.55;;;;;;;;;;4928419;28;20034;-75
2022/06/29 10:54:29;;;;;;;5.10;1.52;;;;;;;;;;4908407;28;20469;-75
2022/06/29 10:56:57;;;;;;;7.95;1.67;;;;;;;;;;4918325;28;20085;-77
2022/06/29 10:59:37;;;;;;;9.48;2.17;;;;;;;;;;4905338;29;20082;-80
2022/06/29 11:02:17;;;;;;;8.27;1.65;;;;;;;;;;4920892;28;20059;-76
2022/06/29 11:04:45;;;;;;;9.27;1.70;;;;;;;;;;4918275;28;20768;-74
2022/06/29 11:12:43;;;;;;;;;;;;;;;;;;4902601;28;20404;-71
2022/06/29 11:17:56;;;;;;;;;;;;;;;;;;4918746;28;20046;-74
2022/06/29 11:20:24;;;;;;;8.40;1.60;;;;;;;;;;4915306;28;20421;-79
2022/06/29 11:22:55;;;;;;;10.75;1.95;;;;;;;;;;4920312;28;20322;-75
2022/06/29 11:25:25;;;;;;;10.15;1.52;;;;;;;;;;4918882;28;20050;-75
2022/06/29 11:27:53;;;;;;;7.63;1.70;;;;;;;;;;4916598;28;20028;-76
2022/06/29 11:30:22;;;;;;;18.65;3.40;;;;;;;;;;4892257;28;20198;-73
2022/06/29 11:32:51;;;;;;;10.63;2.00;;;;;;;;;;4898363;28;20042;-75
2022/06/29 11:35:23;;;;;;;9.13;1.80;;;;;;;;;;4897445;28;20886;-81
2022/06/29 11:38:01;;;;;;;7.63;1.70;;;;;;;;;;4906885;28;20035;-77
2022/06/29 11:40:34;;;;;;;8.90;1.88;;;;;;;;;;4893681;28;20156;-71
2022/06/29 11:43:11;;;;;;;7.47;2.03;;;;;;;;;;4915950;28;20532;-78
2022/06/29 11:46:02;;;;;;;6.68;1.50;;;;;;;;;;4921319;28;20624;-79
2022/06/29 11:48:31;;;;;;;9.55;2.08;;;;;;;;;;4922865;28;20328;-76
2022/06/29 11:51:01;;;;;;;9.48;1.58;;;;;;;;;;4933011;28;20703;-78
2022/06/29 11:53:47;;;;;;;10.20;1.92;;;;;;;;;;4937105;28;20890;-75
2022/06/29 11:56:22;;;;;;;7.22;1.80;;;;;;;;;;4921557;28;20474;-77
2022/06/29 11:58:50;;;;;;;6.80;1.50;;;;;;;;;;4924195;28;20046;-77
2022/06/29 12:01:19;;;;;;;9.57;1.70;;;;;;;;;;4900651;28;20344;-77
2022/06/29 12:03:50;;;;;;;7.65;1.60;;;;;;;;;;4938943;28;20055;-80
2022/06/29 12:06:22;;;;;;;6.80;1.50;;;;;;;;;;4931983;28;20031;-75
2022/06/29 12:08:51;;;;;;;8.80;1.90;;;;;;;;;;4922571;28;20172;-75
2022/06/29 12:11:18;;;;;;;9.60;1.92;;;;;;;;;;4939857;28;20531;-77
2022/06/29 12:13:49;;;;;;;9.48;1.45;;;;;;;;;;4942387;28;20062;-75
2022/06/29 12:16:18;;;;;;;7.90;1.83;;;;;;;;;;4906923;28;20035;-76
2022/06/29 12:18:45;;;;;;;9.88;1.70;;;;;;;;;;4925893;28;20031;-74
2022/06/29 12:21:12;;;;;;;8.30;1.50;;;;;;;;;;4928692;28;20028;-78
2022/06/29 12:23:38;;;;;;;8.50;1.52;;;;;;;;;;4925165;28;20042;-73
2022/06/29 12:26:08;;;;;;;6.75;1.58;;;;;;;;;;4942426;28;20043;-75
2022/06/29 12:28:38;;;;;;;8.00;1.98;;;;;;;;;;4939648;28;20037;-72
2022/06/29 12:31:13;;;;;;;9.57;1.70;;;;;;;;;;4942624;28;20535;-76
2022/06/29 12:33:40;;;;;;;10.80;2.10;;;;;;;;;;4924816;28;20107;-70
2022/06/29 12:36:09;;;;;;;11.10;2.40;;;;;;;;;;4919166;28;20766;-76
2022/06/29 12:38:36;;;;;;;8.88;1.85;;;;;;;;;;4925373;28;20125;-75
2022/06/29 12:41:04;;;;;;;10.13;2.17;;;;;;;;;;4941791;28;20034;-80
2022/06/29 12:43:41;;;;;;;8.93;1.83;;;;;;;;;;4942420;28;20058;-76
2022/06/29 12:46:13;;;;;;;8.90;2.13;;;;;;;;;;4936902;28;20037;-73
2022/06/29 12:48:45;;;;;;;11.15;2.03;;;;;;;;;;4936213;28;20381;-69
2022/06/29 12:51:11;;;;;;;11.35;2.10;;;;;;;;;;4910736;28;20051;-74
2022/06/29 12:53:37;;;;;;;10.27;1.90;;;;;;;;;;4917037;28;20477;-75
2022/06/29 12:56:06;;;;;;;11.50;2.10;;;;;;;;;;4894976;28;20082;-75
2022/06/29 12:58:38;;;;;;;12.20;2.13;;;;;;;;;;4912992;28;20079;-75
2022/06/29 13:01:05;;;;;;;9.05;1.80;;;;;;;;;;4917677;28;20110;-75
2022/06/29 13:03:34;;;;;;;8.48;1.40;;;;;;;;;;4925725;28;20413;-74
2022/06/29 13:06:00;;;;;;;10.35;1.67;;;;;;;;;;4880562;29;20544;-78
2022/06/29 13:08:27;;;;;;;9.10;1.70;;;;;;;;;;4866599;29;20075;-73
2022/06/29 13:10:56;;;;;;;11.38;1.67;;;;;;;;;;4878949;29;20040;-73
2022/06/29 13:13:24;;;;;;;9.45;1.90;;;;;;;;;;4874677;29;20049;-75
2022/06/29 13:15:56;;;;;;;9.73;1.95;;;;;;;;;;4878614;29;20092;-75
2022/06/29 13:18:24;;;;;;;7.97;1.50;;;;;;;;;;4875324;29;20127;-73
2022/06/29 13:20:53;;;;;;;7.63;1.60;;;;;;;;;;4882257;29;20253;-74
2022/06/29 13:23:21;;;;;;;8.90;1.83;;;;;;;;;;4869415;29;21160;-74
2022/06/29 13:26:03;;;;;;;6.65;1.83;;;;;;;;;;4883038;29;20047;-76
2022/06/29 13:28:38;;;;;;;9.10;1.67;;;;;;;;;;4871865;29;20355;-69
2022/06/29 13:31:05;;;;;;;9.60;1.55;;;;;;;;;;4875175;29;20044;-75
2022/06/29 13:33:33;;;;;;;10.20;2.00;;;;;;;;;;4882485;29;20567;-72
2022/06/29 13:36:02;;;;;;;8.10;1.70;;;;;;;;;;4878629;29;20044;-71
2022/06/29 13:38:33;;;;;;;8.43;1.60;;;;;;;;;;4899735;29;20036;-80
2022/06/29 13:41:02;;;;;;;7.07;1.48;;;;;;;;;;4898379;29;20031;-74
2022/06/29 13:43:29;;;;;;;12.45;1.80;;;;;;;;;;4897120;29;20502;-69
2022/06/29 13:45:56;;;;;;;9.15;1.75;;;;;;;;;;4904193;29;20036;-70
2022/06/29 13:48:25;;;;;;;10.38;2.20;;;;;;;;;;4904209;29;20050;-73
2022/06/29 13:50:53;;;;;;;9.23;2.13;;;;;;;;;;4904200;29;20510;-72
2022/06/29 13:53:20;;;;;;;9.50;1.80;;;;;;;;;;4898816;29;20769;-72
2022/06/29 13:55:47;;;;;;;8.48;1.52;;;;;;;;;;4890749;28;20050;-70
2022/06/29 13:58:14;;;;;;;9.07;1.50;;;;;;;;;;4934064;28;20047;-73
2022/06/29 14:00:43;;;;;;;10.70;2.00;;;;;;;;;;4943873;28;20046;-78
2022/06/29 14:03:09;;;;;;;10.40;1.98;;;;;;;;;;4941057;28;20492;-71
2022/06/29 14:05:36;;;;;;;10.18;1.80;;;;;;;;;;4943791;28;20034;-71
2022/06/29 14:08:04;;;;;;;12.05;1.80;;;;;;;;;;4937781;28;20070;-71
2022/06/29 14:10:40;;;;;;;9.13;1.73;;;;;;;;;;4941337;28;20038;-72
2022/06/29 14:13:08;;;;;;;9.05;1.63;;;;;;;;;;4930048;28;20051;-72
2022/06/29 14:15:35;;;;;;;8.73;1.63;;;;;;;;;;4942866;28;20409;-72
2022/06/29 14:18:11;;;;;;;9.48;1.90;;;;;;;;;;4945353;28;20393;-79
2022/06/29 14:20:38;;;;;;;;;;;;;;;;;;4945232;28;20041;-74
2022/06/29 14:23:07;;;;;;;9.93;1.70;;;;;;;;;;4930475;28;20391;-73
2022/06/29 14:25:34;;;;;;;8.88;1.83;;;;;;;;;;4941309;28;20146;-74
2022/06/29 14:28:00;;;;;;;8.20;1.70;;;;;;;;;;4934856;28;20042;-72
2022/06/29 14:30:29;;;;;;;9.15;1.80;;;;;;;;;;4942986;28;20026;-74
2022/06/29 14:33:03;;;;;;;7.47;1.58;;;;;;;;;;4963412;28;20038;-73
2022/06/29 14:35:51;;;;;;;10.30;1.70;;;;;;;;;;4918741;28;20046;-72
2022/06/29 14:38:20;;;;;;;9.77;1.88;;;;;;;;;;4931679;28;20488;-73
2022/06/29 14:40:47;;;;;;;8.65;1.90;;;;;;;;;;4889725;29;20039;-73
2022/06/29 14:43:15;;;;;;;10.13;1.80;;;;;;;;;;4855882;29;20047;-72
2022/06/29 14:45:44;;;;;;;10.20;2.05;;;;;;;;;;4879334;29;20412;-72
2022/06/29 14:48:11;;;;;;;11.98;1.95;;;;;;;;;;4853570;29;20151;-72
2022/06/29 14:50:39;;;;;;;10.23;1.92;;;;;;;;;;4856882;29;20032;-74
2022/06/29 14:53:10;;;;;;;9.77;1.88;;;;;;;;;;4886637;29;20040;-74
2022/06/29 14:55:38;;;;;;;9.40;2.08;;;;;;;;;;4881515;29;20055;-74
2022/06/29 14:58:07;;;;;;;7.03;1.50;;;;;;;;;;4869436;29;20156;-74
2022/06/29 15:00:40;;;;;;;12.05;2.20;;;;;;;;;;4870965;29;20094;-74
2022/06/29 15:03:07;;;;;;;8.57;1.90;;;;;;;;;;4868166;29;20119;-75
2022/06/29 15:05:39;;;;;;;8.43;1.80;;;;;;;;;;4886414;29;20460;-71
2022/06/29 15:08:08;;;;;;;10.18;2.13;;;;;;;;;;4865619;29;20059;-74
2022/06/29 15:10:36;;;;;;;12.55;1.98;;;;;;;;;;4891671;29;20043;-71
2022/06/29 15:13:05;;;;;;;9.63;1.90;;;;;;;;;;4887567;29;20459;-71
2022/06/29 15:15:33;;;;;;;11.82;2.05;;;;;;;;;;4874880;29;20572;-73
2022/06/29 15:18:01;;;;;;;8.75;1.75;;;;;;;;;;4897188;29;20055;-74